Aviation Digital Data Service (ADDS)

Output produced by METARs form (2124 UTC 17 June 2019)
found at http://www.aviationweather.gov/metar/data/
 
METAR text: UIII 172100Z 29008MPS 9999 -SHRA OVC009CB 12/11 Q1016 R30/290150 NOSIG RMK QBB270 QFE717/0956
Conditions at: UIII (IRKUTSK , RU) observed 2100 UTC 17 June 2019
Temperature: 12.0°C (54°F)
Dewpoint: 11.0°C (52°F) [RH = 94%]
Pressure (altimeter): 30.00 inches Hg (1016.0 mb)
Winds: from the WNW (290 degrees) at 18 MPH (16 knots; 8.2 m/s)
Visibility: 6 or more miles (10+ km)
Ceiling: 900 feet AGL
Clouds: overcast cloud deck at 900 feet AGL
Weather: -SHRA  (light rain showers)

METAR text: UIII 172030Z 29006MPS 9999 -SHRA OVC009CB 12/11 Q1015 R30/290150 NOSIG RMK QBB270 QFE717/0956
Conditions at: UIII (IRKUTSK , RU) observed 2030 UTC 17 June 2019
Temperature: 12.0°C (54°F)
Dewpoint: 11.0°C (52°F) [RH = 94%]
Pressure (altimeter): 29.97 inches Hg (1015.0 mb)
Winds: from the WNW (290 degrees) at 14 MPH (12 knots; 6.2 m/s)
Visibility: 6 or more miles (10+ km)
Ceiling: 900 feet AGL
Clouds: overcast cloud deck at 900 feet AGL
Weather: -SHRA  (light rain showers)

METAR text: UIII 172000Z 29008MPS 9999 -SHRA OVC006CB 12/12 Q1015 R30/290150 NOSIG RMK QBB190 QFE716/0955
Conditions at: UIII (IRKUTSK , RU) observed 2000 UTC 17 June 2019
Temperature: 12.0°C (54°F)
Dewpoint: 12.0°C (54°F) [RH = 100%]
Pressure (altimeter): 29.97 inches Hg (1015.0 mb)
Winds: from the WNW (290 degrees) at 18 MPH (16 knots; 8.2 m/s)
Visibility: 6 or more miles (10+ km)
Ceiling: 600 feet AGL
Clouds: overcast cloud deck at 600 feet AGL
Weather: -SHRA  (light rain showers)

METAR text: UIII 171930Z 29007MPS 9000 -SHRA OVC005CB 12/12 Q1014 R30/290150 NOSIG RMK QBB170 QFE716/0955
Conditions at: UIII (IRKUTSK , RU) observed 1930 UTC 17 June 2019
Temperature: 12.0°C (54°F)
Dewpoint: 12.0°C (54°F) [RH = 100%]
Pressure (altimeter): 29.94 inches Hg (1014.0 mb)
Winds: from the WNW (290 degrees) at 16 MPH (14 knots; 7.2 m/s)
Visibility: 6 miles ( 9 km)
Ceiling: 500 feet AGL
Clouds: overcast cloud deck at 500 feet AGL
Weather: -SHRA  (light rain showers)

METAR text: UIII 171900Z 31009MPS 9000 -SHRA OVC008CB 12/12 Q1013 R30/290150 NOSIG RMK QBB250 QFE715/0954
Conditions at: UIII (IRKUTSK , RU) observed 1900 UTC 17 June 2019
Temperature: 12.0°C (54°F)
Dewpoint: 12.0°C (54°F) [RH = 100%]
Pressure (altimeter): 29.91 inches Hg (1013.0 mb)
Winds: from the NW (310 degrees) at 20 MPH (17 knots; 8.7 m/s)
Visibility: 6 miles ( 9 km)
Ceiling: 800 feet AGL
Clouds: overcast cloud deck at 800 feet AGL
Weather: -SHRA  (light rain showers)

METAR text: UIII 171830Z 28006MPS 9999 -SHRA BKN008CB 13/12 Q1014 R30/CLRD60 NOSIG RMK QBB260 QFE716/0955
Conditions at: UIII (IRKUTSK , RU) observed 1830 UTC 17 June 2019
Temperature: 13.0°C (55°F)
Dewpoint: 12.0°C (54°F) [RH = 94%]
Pressure (altimeter): 29.94 inches Hg (1014.0 mb)
Winds: from the W (280 degrees) at 14 MPH (12 knots; 6.2 m/s)
Visibility: 6 or more miles (10+ km)
Ceiling: 800 feet AGL
Clouds: broken clouds at 800 feet AGL
Weather: -SHRA  (light rain showers)

METAR text: UIII 171800Z 29006MPS 9999 BKN010CB 14/12 Q1014 R30/60D NOSIG RMK QFE716/0954
Conditions at: UIII (IRKUTSK , RU) observed 1800 UTC 17 June 2019
Temperature: 14.0°C (57°F)
Dewpoint: 12.0°C (54°F) [RH = 88%]
Pressure (altimeter): 29.94 inches Hg (1014.0 mb)
Winds: from the WNW (290 degrees) at 14 MPH (12 knots; 6.2 m/s)
Visibility: 6 or more miles (10+ km)
Ceiling: 1000 feet AGL
Clouds: broken clouds at 1000 feet AGL
Weather: no significant weather observed at this time

METAR text: UIII 171730Z 29008MPS 9999 BKN011CB 14/12 Q1013 R30/60D NOSIG RMK QFE715/0954
Conditions at: UIII (IRKUTSK , RU) observed 1730 UTC 17 June 2019
Temperature: 14.0°C (57°F)
Dewpoint: 12.0°C (54°F) [RH = 88%]
Pressure (altimeter): 29.91 inches Hg (1013.0 mb)
Winds: from the WNW (290 degrees) at 18 MPH (16 knots; 8.2 m/s)
Visibility: 6 or more miles (10+ km)
Ceiling: 1100 feet AGL
Clouds: broken clouds at 1100 feet AGL
Weather: no significant weather observed at this time

METAR text: UIII 171700Z 29008MPS 9999 BKN011CB 15/12 Q1013 R30/CLRD60 NOSIG RMK QFE715/0954
Conditions at: UIII (IRKUTSK , RU) observed 1700 UTC 17 June 2019
Temperature: 15.0°C (59°F)
Dewpoint: 12.0°C (54°F) [RH = 82%]
Pressure (altimeter): 29.91 inches Hg (1013.0 mb)
Winds: from the WNW (290 degrees) at 18 MPH (16 knots; 8.2 m/s)
Visibility: 6 or more miles (10+ km)
Ceiling: 1100 feet AGL
Clouds: broken clouds at 1100 feet AGL
Weather: no significant weather observed at this time

METAR text: UIII 171630Z 31010G15MPS 9999 BKN019CB 16/11 Q1012 R30/60D NOSIG RMK QFE714/0953
Conditions at: UIII (IRKUTSK , RU) observed 1630 UTC 17 June 2019
Temperature: 16.0°C (61°F)
Dewpoint: 11.0°C (52°F) [RH = 72%]
Pressure (altimeter): 29.88 inches Hg (1012.0 mb)
Winds: from the NW (310 degrees) at 22 MPH (19 knots; 9.8 m/s)
gusting to 33 MPH (29 knots; 14.9 m/s)
Visibility: 6 or more miles (10+ km)
Ceiling: 1900 feet AGL
Clouds: broken clouds at 1900 feet AGL
Weather: no significant weather observed at this time

METAR text: UIII 171600Z 30011MPS 9999 BKN019CB 16/11 Q1011 R30/60D NOSIG RMK QFE714/0952
Conditions at: UIII (IRKUTSK , RU) observed 1600 UTC 17 June 2019
Temperature: 16.0°C (61°F)
Dewpoint: 11.0°C (52°F) [RH = 72%]
Pressure (altimeter): 29.85 inches Hg (1011.0 mb)
Winds: from the WNW (300 degrees) at 24 MPH (21 knots; 10.8 m/s)
Visibility: 6 or more miles (10+ km)
Ceiling: 1900 feet AGL
Clouds: broken clouds at 1900 feet AGL
Weather: no significant weather observed at this time

METAR text: UIII 171530Z 30009G14MPS 9999 BKN016CB 16/12 Q1011 R30/60D NOSIG RMK QFE713/0951
Conditions at: UIII (IRKUTSK , RU) observed 1530 UTC 17 June 2019
Temperature: 16.0°C (61°F)
Dewpoint: 12.0°C (54°F) [RH = 77%]
Pressure (altimeter): 29.85 inches Hg (1011.0 mb)
Winds: from the WNW (300 degrees) at 20 MPH (17 knots; 8.7 m/s)
gusting to 31 MPH (27 knots; 13.9 m/s)
Visibility: 6 or more miles (10+ km)
Ceiling: 1600 feet AGL
Clouds: broken clouds at 1600 feet AGL
Weather: no significant weather observed at this time

METAR text: UIII 171500Z 31009MPS 9999 BKN016CB 17/12 Q1010 R30/CLRD60 NOSIG RMK QFE713/0951
Conditions at: UIII (IRKUTSK , RU) observed 1500 UTC 17 June 2019
Temperature: 17.0°C (63°F)
Dewpoint: 12.0°C (54°F) [RH = 72%]
Pressure (altimeter): 29.82 inches Hg (1010.0 mb)
Winds: from the NW (310 degrees) at 20 MPH (17 knots; 8.7 m/s)
Visibility: 6 or more miles (10+ km)
Ceiling: 1600 feet AGL
Clouds: broken clouds at 1600 feet AGL
Weather: no significant weather observed at this time

METAR text: UIII 171430Z 30011MPS 9999 BKN019CB 17/13 Q1009 R30/CLRD60 NOSIG RMK QFE713/0950
Conditions at: UIII (IRKUTSK , RU) observed 1430 UTC 17 June 2019
Temperature: 17.0°C (63°F)
Dewpoint: 13.0°C (55°F) [RH = 77%]
Pressure (altimeter): 29.79 inches Hg (1009.0 mb)
Winds: from the WNW (300 degrees) at 24 MPH (21 knots; 10.8 m/s)
Visibility: 6 or more miles (10+ km)
Ceiling: 1900 feet AGL
Clouds: broken clouds at 1900 feet AGL
Weather: no significant weather observed at this time

METAR text: UIII 171400Z 31012MPS 9999 SCT033CB 19/14 Q1008 R30/CLRD60 NOSIG RMK QFE712/0949
Conditions at: UIII (IRKUTSK , RU) observed 1400 UTC 17 June 2019
Temperature: 19.0°C (66°F)
Dewpoint: 14.0°C (57°F) [RH = 73%]
Pressure (altimeter): 29.76 inches Hg (1008.0 mb)
Winds: from the NW (310 degrees) at 26 MPH (23 knots; 11.8 m/s)
Visibility: 6 or more miles (10+ km)
Ceiling: at least 12,000 feet AGL
Clouds: scattered clouds at 3300 feet AGL
Weather: no significant weather observed at this time

METAR text: UIII 171330Z 23005G13MPS 190V300 9999 SCT050CB 22/13 Q1007 R30/CLRD60 NOSIG RMK QFE711/0948
Conditions at: UIII (IRKUTSK , RU) observed 1330 UTC 17 June 2019
Temperature: 22.0°C (72°F)
Dewpoint: 13.0°C (55°F) [RH = 57%]
Pressure (altimeter): 29.73 inches Hg (1007.0 mb)
Winds: from the SW (230 degrees) at 12 MPH (10 knots; 5.1 m/s)
gusting to 29 MPH (25 knots; 12.9 m/s)
Visibility: 6 or more miles (10+ km)
Ceiling: at least 12,000 feet AGL
Clouds: scattered clouds at 5000 feet AGL
Weather: no significant weather observed at this time

METAR text: UIII 171300Z 19003MPS 170V240 9999 FEW050CB 22/12 Q1005 R30/60D NOSIG RMK QFE710/0946
Conditions at: UIII (IRKUTSK , RU) observed 1300 UTC 17 June 2019
Temperature: 22.0°C (72°F)
Dewpoint: 12.0°C (54°F) [RH = 53%]
Pressure (altimeter): 29.68 inches Hg (1005.0 mb)
Winds: from the S (190 degrees) at 7 MPH (6 knots; 3.1 m/s)
Visibility: 6 or more miles (10+ km)
Ceiling: at least 12,000 feet AGL
Clouds: few clouds at 5000 feet AGL
Weather: no significant weather observed at this time

METAR text: UIII 171230Z 17003MPS 9999 FEW050CB 23/12 Q1005 R30/CLRD60 NOSIG RMK QFE709/0946
Conditions at: UIII (IRKUTSK , RU) observed 1230 UTC 17 June 2019
Temperature: 23.0°C (73°F)
Dewpoint: 12.0°C (54°F) [RH = 50%]
Pressure (altimeter): 29.68 inches Hg (1005.0 mb)
Winds: from the S (170 degrees) at 7 MPH (6 knots; 3.1 m/s)
Visibility: 6 or more miles (10+ km)
Ceiling: at least 12,000 feet AGL
Clouds: few clouds at 5000 feet AGL
Weather: no significant weather observed at this time

METAR text: UIII 171200Z 18004MPS 9999 FEW050CB 24/12 Q1004 R12/60D NOSIG RMK QFE711/0948
Conditions at: UIII (IRKUTSK , RU) observed 1200 UTC 17 June 2019
Temperature: 24.0°C (75°F)
Dewpoint: 12.0°C (54°F) [RH = 47%]
Pressure (altimeter): 29.65 inches Hg (1004.0 mb)
Winds: from the S (180 degrees) at 9 MPH (8 knots; 4.1 m/s)
Visibility: 6 or more miles (10+ km)
Ceiling: at least 12,000 feet AGL
Clouds: few clouds at 5000 feet AGL
Weather: no significant weather observed at this time

METAR text: UIII 171130Z 16005MPS CAVOK 26/12 Q1004 R12/60D NOSIG RMK QFE711/0948
Conditions at: UIII (IRKUTSK , RU) observed 1130 UTC 17 June 2019
Temperature: 26.0°C (79°F)
Dewpoint: 12.0°C (54°F) [RH = 42%]
Pressure (altimeter): 29.65 inches Hg (1004.0 mb)
Winds: from the SSE (160 degrees) at 12 MPH (10 knots; 5.1 m/s)
Visibility: 6 or more miles (10+ km)
Ceiling: ceiling and visibility are OK
Clouds: unknown
Weather: no significant weather observed at this time

METAR text: UIII 171100Z 16006MPS CAVOK 27/12 Q1004 R12/60D NOSIG RMK QFE710/0947
Conditions at: UIII (IRKUTSK , RU) observed 1100 UTC 17 June 2019
Temperature: 27.0°C (81°F)
Dewpoint: 12.0°C (54°F) [RH = 39%]
Pressure (altimeter): 29.65 inches Hg (1004.0 mb)
Winds: from the SSE (160 degrees) at 14 MPH (12 knots; 6.2 m/s)
Visibility: 6 or more miles (10+ km)
Ceiling: ceiling and visibility are OK
Clouds: unknown
Weather: no significant weather observed at this time

METAR text: UIII 171030Z 17005MPS CAVOK 28/12 Q1003 R12/60D NOSIG RMK QFE710/0947
Conditions at: UIII (IRKUTSK , RU) observed 1030 UTC 17 June 2019
Temperature: 28.0°C (82°F)
Dewpoint: 12.0°C (54°F) [RH = 37%]
Pressure (altimeter): 29.62 inches Hg (1003.0 mb)
Winds: from the S (170 degrees) at 12 MPH (10 knots; 5.1 m/s)
Visibility: 6 or more miles (10+ km)
Ceiling: ceiling and visibility are OK
Clouds: unknown
Weather: no significant weather observed at this time

METAR text: UIII 171000Z 16006MPS CAVOK 28/11 Q1003 R12/CLRD60 NOSIG RMK QFE710/0947
Conditions at: UIII (IRKUTSK , RU) observed 1000 UTC 17 June 2019
Temperature: 28.0°C (82°F)
Dewpoint: 11.0°C (52°F) [RH = 35%]
Pressure (altimeter): 29.62 inches Hg (1003.0 mb)
Winds: from the SSE (160 degrees) at 14 MPH (12 knots; 6.2 m/s)
Visibility: 6 or more miles (10+ km)
Ceiling: ceiling and visibility are OK
Clouds: unknown
Weather: no significant weather observed at this time

METAR text: UIII 170930Z 16006MPS CAVOK 29/12 Q1003 R12/60D NOSIG RMK QFE710/0947
Conditions at: UIII (IRKUTSK , RU) observed 0930 UTC 17 June 2019
Temperature: 29.0°C (84°F)
Dewpoint: 12.0°C (54°F) [RH = 35%]
Pressure (altimeter): 29.62 inches Hg (1003.0 mb)
Winds: from the SSE (160 degrees) at 14 MPH (12 knots; 6.2 m/s)
Visibility: 6 or more miles (10+ km)
Ceiling: ceiling and visibility are OK
Clouds: unknown
Weather: no significant weather observed at this time

METAR text: UIII 170900Z 17006MPS CAVOK 30/12 Q1002 R12/60D NOSIG RMK QFE710/0946
Conditions at: UIII (IRKUTSK , RU) observed 0900 UTC 17 June 2019
Temperature: 30.0°C (86°F)
Dewpoint: 12.0°C (54°F) [RH = 33%]
Pressure (altimeter): 29.59 inches Hg (1002.0 mb)
Winds: from the S (170 degrees) at 14 MPH (12 knots; 6.2 m/s)
Visibility: 6 or more miles (10+ km)
Ceiling: ceiling and visibility are OK
Clouds: unknown
Weather: no significant weather observed at this time

METAR text: UIII 170830Z 16005MPS 110V180 CAVOK 30/12 Q1002 R12/CLRD60 NOSIG RMK QFE710/0946
Conditions at: UIII (IRKUTSK , RU) observed 0830 UTC 17 June 2019
Temperature: 30.0°C (86°F)
Dewpoint: 12.0°C (54°F) [RH = 33%]
Pressure (altimeter): 29.59 inches Hg (1002.0 mb)
Winds: from the SSE (160 degrees) at 12 MPH (10 knots; 5.1 m/s)
Visibility: 6 or more miles (10+ km)
Ceiling: ceiling and visibility are OK
Clouds: unknown
Weather: no significant weather observed at this time

METAR text: UIII 170800Z 15004MPS 110V210 CAVOK 29/12 Q1002 R12/60D NOSIG RMK QFE710/0946
Conditions at: UIII (IRKUTSK , RU) observed 0800 UTC 17 June 2019
Temperature: 29.0°C (84°F)
Dewpoint: 12.0°C (54°F) [RH = 35%]
Pressure (altimeter): 29.59 inches Hg (1002.0 mb)
Winds: from the SSE (150 degrees) at 9 MPH (8 knots; 4.1 m/s)
Visibility: 6 or more miles (10+ km)
Ceiling: ceiling and visibility are OK
Clouds: unknown
Weather: no significant weather observed at this time

METAR text: UIII 170730Z 17004MPS 130V200 CAVOK 29/12 Q1002 R12/60D NOSIG RMK QFE710/0946
Conditions at: UIII (IRKUTSK , RU) observed 0730 UTC 17 June 2019
Temperature: 29.0°C (84°F)
Dewpoint: 12.0°C (54°F) [RH = 35%]
Pressure (altimeter): 29.59 inches Hg (1002.0 mb)
Winds: from the S (170 degrees) at 9 MPH (8 knots; 4.1 m/s)
Visibility: 6 or more miles (10+ km)
Ceiling: ceiling and visibility are OK
Clouds: unknown
Weather: no significant weather observed at this time

METAR text: UIII 170700Z 17004MPS 110V200 CAVOK 29/12 Q1002 R12/CLRD60 NOSIG RMK QFE710/0946
Conditions at: UIII (IRKUTSK , RU) observed 0700 UTC 17 June 2019
Temperature: 29.0°C (84°F)
Dewpoint: 12.0°C (54°F) [RH = 35%]
Pressure (altimeter): 29.59 inches Hg (1002.0 mb)
Winds: from the S (170 degrees) at 9 MPH (8 knots; 4.1 m/s)
Visibility: 6 or more miles (10+ km)
Ceiling: ceiling and visibility are OK
Clouds: unknown
Weather: no significant weather observed at this time

METAR text: UIII 170630Z 17005MPS CAVOK 28/11 Q1003 R12/CLRD60 NOSIG RMK QFE710/0947
Conditions at: UIII (IRKUTSK , RU) observed 0630 UTC 17 June 2019
Temperature: 28.0°C (82°F)
Dewpoint: 11.0°C (52°F) [RH = 35%]
Pressure (altimeter): 29.62 inches Hg (1003.0 mb)
Winds: from the S (170 degrees) at 12 MPH (10 knots; 5.1 m/s)
Visibility: 6 or more miles (10+ km)
Ceiling: ceiling and visibility are OK
Clouds: unknown
Weather: no significant weather observed at this time

METAR text: UIII 170600Z 17005MPS 150V210 CAVOK 28/12 Q1003 R12/60D NOSIG RMK QFE710/0947
Conditions at: UIII (IRKUTSK , RU) observed 0600 UTC 17 June 2019
Temperature: 28.0°C (82°F)
Dewpoint: 12.0°C (54°F) [RH = 37%]
Pressure (altimeter): 29.62 inches Hg (1003.0 mb)
Winds: from the S (170 degrees) at 12 MPH (10 knots; 5.1 m/s)
Visibility: 6 or more miles (10+ km)
Ceiling: ceiling and visibility are OK
Clouds: unknown
Weather: no significant weather observed at this time

METAR text: UIII 170530Z 18005MPS 130V200 CAVOK 28/12 Q1003 R12/60D NOSIG RMK QFE710/0947
Conditions at: UIII (IRKUTSK , RU) observed 0530 UTC 17 June 2019
Temperature: 28.0°C (82°F)
Dewpoint: 12.0°C (54°F) [RH = 37%]
Pressure (altimeter): 29.62 inches Hg (1003.0 mb)
Winds: from the S (180 degrees) at 12 MPH (10 knots; 5.1 m/s)
Visibility: 6 or more miles (10+ km)
Ceiling: ceiling and visibility are OK
Clouds: unknown
Weather: no significant weather observed at this time

METAR text: UIII 170500Z 17006MPS CAVOK 27/12 Q1003 R12/60D NOSIG RMK QFE710/0947
Conditions at: UIII (IRKUTSK , RU) observed 0500 UTC 17 June 2019
Temperature: 27.0°C (81°F)
Dewpoint: 12.0°C (54°F) [RH = 39%]
Pressure (altimeter): 29.62 inches Hg (1003.0 mb)
Winds: from the S (170 degrees) at 14 MPH (12 knots; 6.2 m/s)
Visibility: 6 or more miles (10+ km)
Ceiling: ceiling and visibility are OK
Clouds: unknown
Weather: no significant weather observed at this time

METAR text: UIII 170430Z 17005MPS 120V200 CAVOK 27/13 Q1003 R12/CLRD60 NOSIG RMK QFE710/0947
Conditions at: UIII (IRKUTSK , RU) observed 0430 UTC 17 June 2019
Temperature: 27.0°C (81°F)
Dewpoint: 13.0°C (55°F) [RH = 42%]
Pressure (altimeter): 29.62 inches Hg (1003.0 mb)
Winds: from the S (170 degrees) at 12 MPH (10 knots; 5.1 m/s)
Visibility: 6 or more miles (10+ km)
Ceiling: ceiling and visibility are OK
Clouds: unknown
Weather: no significant weather observed at this time

METAR text: UIII 170400Z 15005MPS CAVOK 26/13 Q1004 R12/CLRD60 NOSIG RMK QFE711/0948
Conditions at: UIII (IRKUTSK , RU) observed 0400 UTC 17 June 2019
Temperature: 26.0°C (79°F)
Dewpoint: 13.0°C (55°F) [RH = 45%]
Pressure (altimeter): 29.65 inches Hg (1004.0 mb)
Winds: from the SSE (150 degrees) at 12 MPH (10 knots; 5.1 m/s)
Visibility: 6 or more miles (10+ km)
Ceiling: ceiling and visibility are OK
Clouds: unknown
Weather: no significant weather observed at this time

METAR text: UIII 170330Z 15005MPS CAVOK 24/13 Q1004 R12/60D NOSIG RMK QFE711/0948
Conditions at: UIII (IRKUTSK , RU) observed 0330 UTC 17 June 2019
Temperature: 24.0°C (75°F)
Dewpoint: 13.0°C (55°F) [RH = 50%]
Pressure (altimeter): 29.65 inches Hg (1004.0 mb)
Winds: from the SSE (150 degrees) at 12 MPH (10 knots; 5.1 m/s)
Visibility: 6 or more miles (10+ km)
Ceiling: ceiling and visibility are OK
Clouds: unknown
Weather: no significant weather observed at this time

METAR text: UIII 170300Z 15004MPS CAVOK 24/12 Q1004 R12/60D NOSIG RMK QFE711/0948
Conditions at: UIII (IRKUTSK , RU) observed 0300 UTC 17 June 2019
Temperature: 24.0°C (75°F)
Dewpoint: 12.0°C (54°F) [RH = 47%]
Pressure (altimeter): 29.65 inches Hg (1004.0 mb)
Winds: from the SSE (150 degrees) at 9 MPH (8 knots; 4.1 m/s)
Visibility: 6 or more miles (10+ km)
Ceiling: ceiling and visibility are OK
Clouds: unknown
Weather: no significant weather observed at this time

METAR text: UIII 170230Z 14004MPS 110V170 CAVOK 23/12 Q1004 R12/60D NOSIG RMK QFE711/0948
Conditions at: UIII (IRKUTSK , RU) observed 0230 UTC 17 June 2019
Temperature: 23.0°C (73°F)
Dewpoint: 12.0°C (54°F) [RH = 50%]
Pressure (altimeter): 29.65 inches Hg (1004.0 mb)
Winds: from the SE (140 degrees) at 9 MPH (8 knots; 4.1 m/s)
Visibility: 6 or more miles (10+ km)
Ceiling: ceiling and visibility are OK
Clouds: unknown
Weather: no significant weather observed at this time

METAR text: UIII 170200Z 15004MPS CAVOK 21/12 Q1004 R12/CLRD60 NOSIG RMK QFE711/0948
Conditions at: UIII (IRKUTSK , RU) observed 0200 UTC 17 June 2019
Temperature: 21.0°C (70°F)
Dewpoint: 12.0°C (54°F) [RH = 56%]
Pressure (altimeter): 29.65 inches Hg (1004.0 mb)
Winds: from the SSE (150 degrees) at 9 MPH (8 knots; 4.1 m/s)
Visibility: 6 or more miles (10+ km)
Ceiling: ceiling and visibility are OK
Clouds: unknown
Weather: no significant weather observed at this time

METAR text: UIII 170130Z 16004MPS 130V190 CAVOK 21/12 Q1004 R12/CLRD60 NOSIG RMK QFE711/0948
Conditions at: UIII (IRKUTSK , RU) observed 0130 UTC 17 June 2019
Temperature: 21.0°C (70°F)
Dewpoint: 12.0°C (54°F) [RH = 56%]
Pressure (altimeter): 29.65 inches Hg (1004.0 mb)
Winds: from the SSE (160 degrees) at 9 MPH (8 knots; 4.1 m/s)
Visibility: 6 or more miles (10+ km)
Ceiling: ceiling and visibility are OK
Clouds: unknown
Weather: no significant weather observed at this time

METAR text: UIII 170100Z 16003MPS CAVOK 19/11 Q1004 R12/60D NOSIG RMK QFE711/0948
Conditions at: UIII (IRKUTSK , RU) observed 0100 UTC 17 June 2019
Temperature: 19.0°C (66°F)
Dewpoint: 11.0°C (52°F) [RH = 60%]
Pressure (altimeter): 29.65 inches Hg (1004.0 mb)
Winds: from the SSE (160 degrees) at 7 MPH (6 knots; 3.1 m/s)
Visibility: 6 or more miles (10+ km)
Ceiling: ceiling and visibility are OK
Clouds: unknown
Weather: no significant weather observed at this time

METAR text: UIII 170030Z 17003MPS 130V200 CAVOK 18/11 Q1004 R12/60D NOSIG RMK QFE711/0948
Conditions at: UIII (IRKUTSK , RU) observed 0030 UTC 17 June 2019
Temperature: 18.0°C (64°F)
Dewpoint: 11.0°C (52°F) [RH = 64%]
Pressure (altimeter): 29.65 inches Hg (1004.0 mb)
Winds: from the S (170 degrees) at 7 MPH (6 knots; 3.1 m/s)
Visibility: 6 or more miles (10+ km)
Ceiling: ceiling and visibility are OK
Clouds: unknown
Weather: no significant weather observed at this time

METAR text: UIII 170000Z 19003MPS 160V220 CAVOK 16/12 Q1004 R12/CLRD60 NOSIG RMK QFE711/0948
Conditions at: UIII (IRKUTSK , RU) observed 0000 UTC 17 June 2019
Temperature: 16.0°C (61°F)
Dewpoint: 12.0°C (54°F) [RH = 77%]
Pressure (altimeter): 29.65 inches Hg (1004.0 mb)
Winds: from the S (190 degrees) at 7 MPH (6 knots; 3.1 m/s)
Visibility: 6 or more miles (10+ km)
Ceiling: ceiling and visibility are OK
Clouds: unknown
Weather: no significant weather observed at this time

METAR text: UIII 162330Z 16002MPS CAVOK 15/12 Q1004 R12/60D NOSIG RMK QFE711/0948
Conditions at: UIII (IRKUTSK , RU) observed 2330 UTC 16 June 2019
Temperature: 15.0°C (59°F)
Dewpoint: 12.0°C (54°F) [RH = 82%]
Pressure (altimeter): 29.65 inches Hg (1004.0 mb)
Winds: from the SSE (160 degrees) at 5 MPH (4 knots; 2.1 m/s)
Visibility: 6 or more miles (10+ km)
Ceiling: ceiling and visibility are OK
Clouds: unknown
Weather: no significant weather observed at this time

METAR text: UIII 162300Z 13002MPS 100V170 CAVOK 16/11 Q1004 R12/CLRD60 NOSIG RMK QFE711/0948
Conditions at: UIII (IRKUTSK , RU) observed 2300 UTC 16 June 2019
Temperature: 16.0°C (61°F)
Dewpoint: 11.0°C (52°F) [RH = 72%]
Pressure (altimeter): 29.65 inches Hg (1004.0 mb)
Winds: from the SE (130 degrees) at 5 MPH (4 knots; 2.1 m/s)
Visibility: 6 or more miles (10+ km)
Ceiling: ceiling and visibility are OK
Clouds: unknown
Weather: no significant weather observed at this time

METAR text: UIII 162230Z 13003MPS CAVOK 14/11 Q1004 R12/CLRD60 NOSIG RMK QFE711/0948
Conditions at: UIII (IRKUTSK , RU) observed 2230 UTC 16 June 2019
Temperature: 14.0°C (57°F)
Dewpoint: 11.0°C (52°F) [RH = 82%]
Pressure (altimeter): 29.65 inches Hg (1004.0 mb)
Winds: from the SE (130 degrees) at 7 MPH (6 knots; 3.1 m/s)
Visibility: 6 or more miles (10+ km)
Ceiling: ceiling and visibility are OK
Clouds: unknown
Weather: no significant weather observed at this time

METAR text: UIII 162200Z 11002MPS CAVOK 13/11 Q1004 R12/60D NOSIG RMK QFE711/0948
Conditions at: UIII (IRKUTSK , RU) observed 2200 UTC 16 June 2019
Temperature: 13.0°C (55°F)
Dewpoint: 11.0°C (52°F) [RH = 88%]
Pressure (altimeter): 29.65 inches Hg (1004.0 mb)
Winds: from the ESE (110 degrees) at 5 MPH (4 knots; 2.1 m/s)
Visibility: 6 or more miles (10+ km)
Ceiling: ceiling and visibility are OK
Clouds: unknown
Weather: no significant weather observed at this time

METAR text: UIII 162130Z 14002MPS CAVOK 10/10 Q1004 R12/CLRD60 NOSIG RMK QFE711/0948
Conditions at: UIII (IRKUTSK , RU) observed 2130 UTC 16 June 2019
Temperature: 10.0°C (50°F)
Dewpoint: 10.0°C (50°F) [RH = 100%]
Pressure (altimeter): 29.65 inches Hg (1004.0 mb)
Winds: from the SE (140 degrees) at 5 MPH (4 knots; 2.1 m/s)
Visibility: 6 or more miles (10+ km)
Ceiling: ceiling and visibility are OK
Clouds: unknown
Weather: no significant weather observed at this time

METAR text: UIII 162100Z 19003MPS CAVOK 10/10 Q1004 R12/60D NOSIG RMK QFE711/0948
Conditions at: UIII (IRKUTSK , RU) observed 2100 UTC 16 June 2019
Temperature: 10.0°C (50°F)
Dewpoint: 10.0°C (50°F) [RH = 100%]
Pressure (altimeter): 29.65 inches Hg (1004.0 mb)
Winds: from the S (190 degrees) at 7 MPH (6 knots; 3.1 m/s)
Visibility: 6 or more miles (10+ km)
Ceiling: ceiling and visibility are OK
Clouds: unknown
Weather: no significant weather observed at this time

METAR text: UIII 162030Z 16002MPS 120V210 CAVOK 11/10 Q1004 R12/CLRD60 NOSIG RMK QFE711/0948
Conditions at: UIII (IRKUTSK , RU) observed 2030 UTC 16 June 2019
Temperature: 11.0°C (52°F)
Dewpoint: 10.0°C (50°F) [RH = 94%]
Pressure (altimeter): 29.65 inches Hg (1004.0 mb)
Winds: from the SSE (160 degrees) at 5 MPH (4 knots; 2.1 m/s)
Visibility: 6 or more miles (10+ km)
Ceiling: ceiling and visibility are OK
Clouds: unknown
Weather: no significant weather observed at this time

METAR text: UIII 162000Z 11002MPS CAVOK 11/10 Q1004 R12/60D NOSIG RMK QFE711/0948
Conditions at: UIII (IRKUTSK , RU) observed 2000 UTC 16 June 2019
Temperature: 11.0°C (52°F)
Dewpoint: 10.0°C (50°F) [RH = 94%]
Pressure (altimeter): 29.65 inches Hg (1004.0 mb)
Winds: from the ESE (110 degrees) at 5 MPH (4 knots; 2.1 m/s)
Visibility: 6 or more miles (10+ km)
Ceiling: ceiling and visibility are OK
Clouds: unknown
Weather: no significant weather observed at this time

METAR text: UIII 161930Z 12002MPS CAVOK 12/10 Q1004 R12/CLRD60 NOSIG RMK QFE711/0948
Conditions at: UIII (IRKUTSK , RU) observed 1930 UTC 16 June 2019
Temperature: 12.0°C (54°F)
Dewpoint: 10.0°C (50°F) [RH = 88%]
Pressure (altimeter): 29.65 inches Hg (1004.0 mb)
Winds: from the ESE (120 degrees) at 5 MPH (4 knots; 2.1 m/s)
Visibility: 6 or more miles (10+ km)
Ceiling: ceiling and visibility are OK
Clouds: unknown
Weather: no significant weather observed at this time

METAR text: UIII 161900Z 12002MPS CAVOK 11/10 Q1004 R12/60D NOSIG RMK QFE711/0948
Conditions at: UIII (IRKUTSK , RU) observed 1900 UTC 16 June 2019
Temperature: 11.0°C (52°F)
Dewpoint: 10.0°C (50°F) [RH = 94%]
Pressure (altimeter): 29.65 inches Hg (1004.0 mb)
Winds: from the ESE (120 degrees) at 5 MPH (4 knots; 2.1 m/s)
Visibility: 6 or more miles (10+ km)
Ceiling: ceiling and visibility are OK
Clouds: unknown
Weather: no significant weather observed at this time

METAR text: UIII 161830Z VRB01MPS CAVOK 12/10 Q1004 R12/60D NOSIG RMK QFE711/0948
Conditions at: UIII (IRKUTSK , RU) observed 1830 UTC 16 June 2019
Temperature: 12.0°C (54°F)
Dewpoint: 10.0°C (50°F) [RH = 88%]
Pressure (altimeter): 29.65 inches Hg (1004.0 mb)
Winds: variable direction winds at 2 MPH (2 knots; 1.0 m/s)
Visibility: 6 or more miles (10+ km)
Ceiling: ceiling and visibility are OK
Clouds: unknown
Weather: no significant weather observed at this time

METAR text: UIII 161800Z 10002MPS 050V150 CAVOK 12/10 Q1004 R12/60D NOSIG RMK QFE711/0949
Conditions at: UIII (IRKUTSK , RU) observed 1800 UTC 16 June 2019
Temperature: 12.0°C (54°F)
Dewpoint: 10.0°C (50°F) [RH = 88%]
Pressure (altimeter): 29.65 inches Hg (1004.0 mb)
Winds: from the E (100 degrees) at 5 MPH (4 knots; 2.1 m/s)
Visibility: 6 or more miles (10+ km)
Ceiling: ceiling and visibility are OK
Clouds: unknown
Weather: no significant weather observed at this time

METAR text: UIII 161730Z VRB01MPS CAVOK 13/10 Q1004 R12/60D NOSIG RMK QFE711/0949
Conditions at: UIII (IRKUTSK , RU) observed 1730 UTC 16 June 2019
Temperature: 13.0°C (55°F)
Dewpoint: 10.0°C (50°F) [RH = 82%]
Pressure (altimeter): 29.65 inches Hg (1004.0 mb)
Winds: variable direction winds at 2 MPH (2 knots; 1.0 m/s)
Visibility: 6 or more miles (10+ km)
Ceiling: ceiling and visibility are OK
Clouds: unknown
Weather: no significant weather observed at this time

METAR text: UIII 161700Z 17002MPS CAVOK 13/11 Q1005 R12/CLRD60 NOSIG RMK QFE711/0949
Conditions at: UIII (IRKUTSK , RU) observed 1700 UTC 16 June 2019
Temperature: 13.0°C (55°F)
Dewpoint: 11.0°C (52°F) [RH = 88%]
Pressure (altimeter): 29.68 inches Hg (1005.0 mb)
Winds: from the S (170 degrees) at 5 MPH (4 knots; 2.1 m/s)
Visibility: 6 or more miles (10+ km)
Ceiling: ceiling and visibility are OK
Clouds: unknown
Weather: no significant weather observed at this time

METAR text: UIII 161630Z 12002MPS 080V140 CAVOK 14/11 Q1004 R12/60D NOSIG RMK QFE711/0948
Conditions at: UIII (IRKUTSK , RU) observed 1630 UTC 16 June 2019
Temperature: 14.0°C (57°F)
Dewpoint: 11.0°C (52°F) [RH = 82%]
Pressure (altimeter): 29.65 inches Hg (1004.0 mb)
Winds: from the ESE (120 degrees) at 5 MPH (4 knots; 2.1 m/s)
Visibility: 6 or more miles (10+ km)
Ceiling: ceiling and visibility are OK
Clouds: unknown
Weather: no significant weather observed at this time

METAR text: UIII 161600Z 10002MPS 040V140 CAVOK 14/11 Q1004 R12/60D NOSIG RMK QFE711/0948
Conditions at: UIII (IRKUTSK , RU) observed 1600 UTC 16 June 2019
Temperature: 14.0°C (57°F)
Dewpoint: 11.0°C (52°F) [RH = 82%]
Pressure (altimeter): 29.65 inches Hg (1004.0 mb)
Winds: from the E (100 degrees) at 5 MPH (4 knots; 2.1 m/s)
Visibility: 6 or more miles (10+ km)
Ceiling: ceiling and visibility are OK
Clouds: unknown
Weather: no significant weather observed at this time

METAR text: UIII 161530Z 17004MPS CAVOK 14/11 Q1004 R30/60D NOSIG RMK QFE709/0946
Conditions at: UIII (IRKUTSK , RU) observed 1530 UTC 16 June 2019
Temperature: 14.0°C (57°F)
Dewpoint: 11.0°C (52°F) [RH = 82%]
Pressure (altimeter): 29.65 inches Hg (1004.0 mb)
Winds: from the S (170 degrees) at 9 MPH (8 knots; 4.1 m/s)
Visibility: 6 or more miles (10+ km)
Ceiling: ceiling and visibility are OK
Clouds: unknown
Weather: no significant weather observed at this time

METAR text: UIII 161500Z 18003MPS CAVOK 15/11 Q1004 R30/CLRD60 NOSIG RMK QFE709/0946
Conditions at: UIII (IRKUTSK , RU) observed 1500 UTC 16 June 2019
Temperature: 15.0°C (59°F)
Dewpoint: 11.0°C (52°F) [RH = 77%]
Pressure (altimeter): 29.65 inches Hg (1004.0 mb)
Winds: from the S (180 degrees) at 7 MPH (6 knots; 3.1 m/s)
Visibility: 6 or more miles (10+ km)
Ceiling: ceiling and visibility are OK
Clouds: unknown
Weather: no significant weather observed at this time

METAR text: UIII 161430Z 21002MPS CAVOK 15/11 Q1004 R30/60D NOSIG RMK QFE709/0945
Conditions at: UIII (IRKUTSK , RU) observed 1430 UTC 16 June 2019
Temperature: 15.0°C (59°F)
Dewpoint: 11.0°C (52°F) [RH = 77%]
Pressure (altimeter): 29.65 inches Hg (1004.0 mb)
Winds: from the SSW (210 degrees) at 5 MPH (4 knots; 2.1 m/s)
Visibility: 6 or more miles (10+ km)
Ceiling: ceiling and visibility are OK
Clouds: unknown
Weather: no significant weather observed at this time

METAR text: UIII 161400Z VRB01MPS CAVOK 17/11 Q1004 R12/CLRD60 NOSIG RMK QFE711/0948
Conditions at: UIII (IRKUTSK , RU) observed 1400 UTC 16 June 2019
Temperature: 17.0°C (63°F)
Dewpoint: 11.0°C (52°F) [RH = 68%]
Pressure (altimeter): 29.65 inches Hg (1004.0 mb)
Winds: variable direction winds at 2 MPH (2 knots; 1.0 m/s)
Visibility: 6 or more miles (10+ km)
Ceiling: ceiling and visibility are OK
Clouds: unknown
Weather: no significant weather observed at this time

METAR text: UIII 161330Z 17004MPS CAVOK 18/11 Q1004 R12/60D NOSIG RMK QFE711/0948
Conditions at: UIII (IRKUTSK , RU) observed 1330 UTC 16 June 2019
Temperature: 18.0°C (64°F)
Dewpoint: 11.0°C (52°F) [RH = 64%]
Pressure (altimeter): 29.65 inches Hg (1004.0 mb)
Winds: from the S (170 degrees) at 9 MPH (8 knots; 4.1 m/s)
Visibility: 6 or more miles (10+ km)
Ceiling: ceiling and visibility are OK
Clouds: unknown
Weather: no significant weather observed at this time

METAR text: UIII 161300Z 17005MPS 9999 FEW050CB 19/12 Q1004 R12/CLRD60 NOSIG RMK QFE711/0948
Conditions at: UIII (IRKUTSK , RU) observed 1300 UTC 16 June 2019
Temperature: 19.0°C (66°F)
Dewpoint: 12.0°C (54°F) [RH = 64%]
Pressure (altimeter): 29.65 inches Hg (1004.0 mb)
Winds: from the S (170 degrees) at 12 MPH (10 knots; 5.1 m/s)
Visibility: 6 or more miles (10+ km)
Ceiling: at least 12,000 feet AGL
Clouds: few clouds at 5000 feet AGL
Weather: no significant weather observed at this time

METAR text: UIII 161230Z 17004MPS 9999 FEW050CB 20/13 Q1004 R12/60D NOSIG RMK QFE711/0948
Conditions at: UIII (IRKUTSK , RU) observed 1230 UTC 16 June 2019
Temperature: 20.0°C (68°F)
Dewpoint: 13.0°C (55°F) [RH = 64%]
Pressure (altimeter): 29.65 inches Hg (1004.0 mb)
Winds: from the S (170 degrees) at 9 MPH (8 knots; 4.1 m/s)
Visibility: 6 or more miles (10+ km)
Ceiling: at least 12,000 feet AGL
Clouds: few clouds at 5000 feet AGL
Weather: no significant weather observed at this time

METAR text: UIII 161200Z 16004MPS 9999 FEW050CB 21/13 Q1003 R12/60D NOSIG RMK QFE710/0947
Conditions at: UIII (IRKUTSK , RU) observed 1200 UTC 16 June 2019
Temperature: 21.0°C (70°F)
Dewpoint: 13.0°C (55°F) [RH = 60%]
Pressure (altimeter): 29.62 inches Hg (1003.0 mb)
Winds: from the SSE (160 degrees) at 9 MPH (8 knots; 4.1 m/s)
Visibility: 6 or more miles (10+ km)
Ceiling: at least 12,000 feet AGL
Clouds: few clouds at 5000 feet AGL
Weather: no significant weather observed at this time

METAR text: UIII 161130Z 16005MPS 9999 FEW050CB 21/14 Q1003 R12/60D NOSIG RMK QFE710/0947
Conditions at: UIII (IRKUTSK , RU) observed 1130 UTC 16 June 2019
Temperature: 21.0°C (70°F)
Dewpoint: 14.0°C (57°F) [RH = 64%]
Pressure (altimeter): 29.62 inches Hg (1003.0 mb)
Winds: from the SSE (160 degrees) at 12 MPH (10 knots; 5.1 m/s)
Visibility: 6 or more miles (10+ km)
Ceiling: at least 12,000 feet AGL
Clouds: few clouds at 5000 feet AGL
Weather: no significant weather observed at this time

METAR text: UIII 161100Z 18004MPS 9999 FEW050CB 20/13 Q1003 R12/CLRD60 NOSIG RMK QFE710/0947
Conditions at: UIII (IRKUTSK , RU) observed 1100 UTC 16 June 2019
Temperature: 20.0°C (68°F)
Dewpoint: 13.0°C (55°F) [RH = 64%]
Pressure (altimeter): 29.62 inches Hg (1003.0 mb)
Winds: from the S (180 degrees) at 9 MPH (8 knots; 4.1 m/s)
Visibility: 6 or more miles (10+ km)
Ceiling: at least 12,000 feet AGL
Clouds: few clouds at 5000 feet AGL
Weather: no significant weather observed at this time

METAR text: UIII 161030Z 18003MPS 9999 FEW050CB 22/14 Q1003 R12/CLRD60 NOSIG RMK QFE710/0947
Conditions at: UIII (IRKUTSK , RU) observed 1030 UTC 16 June 2019
Temperature: 22.0°C (72°F)
Dewpoint: 14.0°C (57°F) [RH = 60%]
Pressure (altimeter): 29.62 inches Hg (1003.0 mb)
Winds: from the S (180 degrees) at 7 MPH (6 knots; 3.1 m/s)
Visibility: 6 or more miles (10+ km)
Ceiling: at least 12,000 feet AGL
Clouds: few clouds at 5000 feet AGL
Weather: no significant weather observed at this time

METAR text: UIII 161000Z 18003MPS 9999 FEW050CB 24/14 Q1003 R30/CLRD60 NOSIG RMK QFE708/0944
Conditions at: UIII (IRKUTSK , RU) observed 1000 UTC 16 June 2019
Temperature: 24.0°C (75°F)
Dewpoint: 14.0°C (57°F) [RH = 54%]
Pressure (altimeter): 29.62 inches Hg (1003.0 mb)
Winds: from the S (180 degrees) at 7 MPH (6 knots; 3.1 m/s)
Visibility: 6 or more miles (10+ km)
Ceiling: at least 12,000 feet AGL
Clouds: few clouds at 5000 feet AGL
Weather: no significant weather observed at this time

METAR text: UIII 160930Z 19003MPS 160V240 9999 FEW050CB 24/14 Q1003 R30/CLRD60 NOSIG RMK QFE708/0944
Conditions at: UIII (IRKUTSK , RU) observed 0930 UTC 16 June 2019
Temperature: 24.0°C (75°F)
Dewpoint: 14.0°C (57°F) [RH = 54%]
Pressure (altimeter): 29.62 inches Hg (1003.0 mb)
Winds: from the S (190 degrees) at 7 MPH (6 knots; 3.1 m/s)
Visibility: 6 or more miles (10+ km)
Ceiling: at least 12,000 feet AGL
Clouds: few clouds at 5000 feet AGL
Weather: no significant weather observed at this time

Forecast for: UIII (IRKUTSK , RU)
Text: TAF UIII 172000Z 1721/1821 30008MPS 9999 BKN008CB
Forecast period: 2100 UTC 17 June 2019 to 0600 UTC 18 June 2019
Forecast type: FROM: standard forecast or significant change
Winds: from the WNW (300 degrees) at 18 MPH (16 knots; 8.2 m/s)
Visibility: 6 or more miles 10+ km)
Ceiling: 800 feet AGL
Clouds: broken clouds at 800 feet AGL
Weather: no significant weather forecast for this period
Text: TEMPO 1721/1806 30013MPS -SHRA BKN004 OVC008CB
Forecast period: 2100 UTC 17 June 2019 to 0600 UTC 18 June 2019
Forecast type: TEMPORARY: The following changes expected for less than half the time period
Winds: from the WNW (300 degrees) at 29 MPH (25 knots; 12.9 m/s)
Visibility: missing
Ceiling: 400 feet AGL
Clouds: broken clouds at 400 feet AGL
overcast cloud deck at 800 feet AGL
Weather: -SHRA  (light rain showers)
Text: BECMG 1806/1808 SCT020CB
Forecast period: 0600 to 1000 UTC 18 June 2019
Forecast type: BECOMING: Conditions expected to become as follows by 0800 UTC 18 June 2019
Winds: from the WNW (300 degrees) at 18 MPH (16 knots; 8.2 m/s)
Visibility: 6 or more miles 10+ km)
Ceiling: at least 12,000 feet AGL
Clouds: scattered clouds at 2000 feet AGL
Weather: no significant weather forecast for this period
Text: BECMG 1810/1812 13003MPS
Forecast period: 1000 to 2100 UTC 18 June 2019
Forecast type: BECOMING: Conditions expected to become as follows by 1200 UTC 18 June 2019
Winds: from the SE (130 degrees) at 7 MPH (6 knots; 3.1 m/s)
Visibility: 6 or more miles 10+ km)
Ceiling: at least 12,000 feet AGL
Clouds: scattered clouds at 2000 feet AGL
Weather: no significant weather forecast for this period